Time;durP1;ratioP1;P1;durP2;ratioP2;P2;SDS_P1;SDS_P2;PMS_P1;PMS_P2;Temp;Humidity;BMP_temperature;BMP_pressure;BME280_temperature;BME280_humidity;BME280_pressure;Samples;Min_cycle;Max_cycle;Signal;HPM_P1;HPM_P2
2023/01/04 00:02:21;;;;;;;;;;;11.50;99.90;;;;;;7334510;19;108918;-92
2023/01/04 00:04:48;;;;;;;;;;;11.50;99.90;;;;;;7343129;19;109956;-91
2023/01/04 00:07:15;;;;;;;;;;;11.50;99.90;;;;;;7335539;19;108182;-93
2023/01/04 00:09:42;;;;;;;;;;;11.50;99.90;;;;;;7336379;19;113479;-91
2023/01/04 00:12:09;;;;;;;;;;;11.50;99.90;;;;;;7336142;19;108303;-92
2023/01/04 00:14:36;;;;;;;;;;;11.50;99.90;;;;;;7337086;19;110801;-92
2023/01/04 00:17:04;;;;;;;;;;;11.50;99.90;;;;;;7336930;19;110688;-92
2023/01/04 00:19:31;;;;;;;;;;;11.50;99.90;;;;;;7334637;19;108732;-91
2023/01/04 00:21:58;;;;;;;;;;;11.50;99.90;;;;;;7335950;19;108685;-91
2023/01/04 00:24:25;;;;;;;;;;;11.50;99.90;;;;;;7334730;19;109991;-91
2023/01/04 00:26:52;;;;;;;;;;;11.50;99.90;;;;;;7340743;19;109916;-91
2023/01/04 00:29:19;;;;;;;;;;;11.40;99.90;;;;;;7335433;19;109173;-92
2023/01/04 00:31:46;;;;;;;;;;;11.40;99.90;;;;;;7334887;19;109215;-90
2023/01/04 00:34:14;;;;;;;;;;;11.50;99.90;;;;;;7337651;19;109094;-92
2023/01/04 00:36:42;;;;;;;;;;;11.50;99.90;;;;;;7336471;19;110344;-92
2023/01/04 00:39:13;;;;;;;;;;;11.50;99.90;;;;;;7334527;19;108789;-93
2023/01/04 00:41:47;;;;;;;;;;;11.40;99.90;;;;;;7336876;19;109073;-92
2023/01/04 00:44:33;;;;;;;;;;;11.50;99.90;;;;;;7341183;19;110284;-90
2023/01/04 00:47:01;;;;;;;;;;;11.40;99.90;;;;;;7342659;19;109156;-90
2023/01/04 00:49:29;;;;;;;;;;;11.40;99.90;;;;;;7344382;19;108678;-92
2023/01/04 00:51:56;;;;;;;;;;;11.40;99.90;;;;;;7341044;19;109138;-91
2023/01/04 00:54:23;;;;;;;;;;;11.40;99.90;;;;;;7340448;19;110454;-92
2023/01/04 00:56:50;;;;;;;;;;;11.50;99.90;;;;;;7341191;19;110510;-92
2023/01/04 00:59:18;;;;;;;;;;;11.40;99.90;;;;;;7342123;19;108441;-91
2023/01/04 01:01:45;;;;;;;;;;;11.40;99.90;;;;;;7343644;19;108918;-93
2023/01/04 01:04:13;;;;;;;;;;;11.40;99.90;;;;;;7345212;19;110766;-92
2023/01/04 01:06:40;;;;;;;;;;;11.40;99.90;;;;;;7345384;19;110438;-92
2023/01/04 01:09:08;;;;;;;;;;;11.40;99.90;;;;;;7346108;19;110038;-92
2023/01/04 01:11:36;;;;;;;;;;;11.50;99.90;;;;;;7347510;19;110456;-93
2023/01/04 01:14:03;;;;;;;;;;;11.50;99.90;;;;;;7343163;19;109492;-92
2023/01/04 01:16:30;;;;;;;;;;;11.40;99.90;;;;;;7341415;19;113513;-93
2023/01/04 01:19:17;;;;;;;;;;;11.50;99.90;;;;;;7344800;19;108540;-91
2023/01/04 01:21:44;;;;;;;;;;;11.50;99.90;;;;;;7343393;19;108349;-93
2023/01/04 01:24:15;;;;;;;;;;;11.50;99.90;;;;;;7343226;19;108934;-91
2023/01/04 01:26:42;;;;;;;;;;;11.50;99.90;;;;;;7348051;19;108208;-93
2023/01/04 01:29:09;;;;;;;;;;;11.50;99.90;;;;;;7346721;19;108346;-92
2023/01/04 01:31:36;;;;;;;;;;;11.50;99.90;;;;;;7344392;19;108925;-91
2023/01/04 01:34:03;;;;;;;;;;;11.50;99.90;;;;;;7351441;19;108766;-92
2023/01/04 01:36:30;;;;;;;;;;;11.50;99.90;;;;;;7342317;19;109242;-92
2023/01/04 01:38:57;;;;;;;;;;;11.50;99.90;;;;;;7345501;19;108672;-93
2023/01/04 01:41:26;;;;;;;;;;;11.50;99.90;;;;;;7343608;19;109501;-93
2023/01/04 01:43:54;;;;;;;;;;;11.60;99.90;;;;;;7344988;19;109569;-92
2023/01/04 01:46:24;;;;;;;;;;;11.50;99.90;;;;;;7345162;19;108088;-92
2023/01/04 01:48:55;;;;;;;;;;;11.60;99.90;;;;;;7343296;19;108172;-93
2023/01/04 01:51:22;;;;;;;;;;;11.60;99.90;;;;;;7342196;19;110561;-92
2023/01/04 01:53:53;;;;;;;;;;;11.50;99.90;;;;;;7348028;19;110284;-92
2023/01/04 01:56:20;;;;;;;;;;;11.60;99.90;;;;;;7344391;19;110672;-93
2023/01/04 01:58:51;;;;;;;;;;;11.60;99.90;;;;;;7346309;19;108940;-94
2023/01/04 02:01:18;;;;;;;;;;;11.70;99.90;;;;;;7343038;19;109711;-93
2023/01/04 02:03:45;;;;;;;;;;;11.70;99.90;;;;;;7345238;19;111699;-92
2023/01/04 02:06:16;;;;;;;;;;;11.70;99.90;;;;;;7342610;19;108910;-92
2023/01/04 02:08:43;;;;;;;;;;;11.60;99.90;;;;;;7344372;19;110356;-92
2023/01/04 02:11:10;;;;;;;;;;;11.70;99.90;;;;;;7343942;19;110446;-93
2023/01/04 02:16:36;;;;;;;;;;;11.60;99.90;;;;;;7346996;19;108943;-93
2023/01/04 02:19:06;;;;;;;;;;;11.70;99.90;;;;;;7345598;19;109014;-94
2023/01/04 02:21:46;;;;;;;;;;;11.70;99.90;;;;;;7342203;19;109717;-93
2023/01/04 02:24:45;;;;;;;;;;;11.70;99.90;;;;;;7345853;19;111389;-92
2023/01/04 02:27:18;;;;;;;;;;;11.70;99.90;;;;;;7340047;19;108720;-93
2023/01/04 02:30:01;;;;;;;;;;;11.70;99.90;;;;;;7340316;19;108351;-93
2023/01/04 02:32:39;;;;;;;;;;;11.70;99.90;;;;;;7339044;19;111651;-92
2023/01/04 02:35:16;;;;;;;;;;;11.80;99.90;;;;;;7339648;19;108544;-93
2023/01/04 02:37:45;;;;;;;;;;;11.70;99.90;;;;;;7340487;19;109510;-92
2023/01/04 02:40:22;;;;;;;;;;;11.80;99.90;;;;;;7345237;19;110311;-92
2023/01/04 02:45:58;;;;;;;;;;;11.80;99.90;;;;;;7339017;19;110224;-92
2023/01/04 02:51:25;;;;;;;;;;;11.80;99.90;;;;;;7340093;19;108621;-93
2023/01/04 02:53:52;;;;;;;;;;;11.80;99.90;;;;;;7339921;19;109495;-93
2023/01/04 02:56:34;;;;;;;;;;;11.80;99.90;;;;;;7336001;19;110176;-92
2023/01/04 02:59:04;;;;;;;;;;;11.90;99.90;;;;;;7338533;19;113233;-92
2023/01/04 03:07:36;;;;;;;;;;;11.90;99.90;;;;;;7341610;19;109548;-93
2023/01/04 03:10:19;;;;;;;;;;;11.90;99.90;;;;;;7342603;19;108425;-93
2023/01/04 03:12:49;;;;;;;;;;;12.00;99.90;;;;;;7340284;19;113004;-93
2023/01/04 03:15:19;;;;;;;;;;;11.90;99.90;;;;;;7340296;19;108336;-93
2023/01/04 03:17:49;;;;;;;;;;;12.00;99.90;;;;;;7344494;19;111848;-93
2023/01/04 03:20:17;;;;;;;;;;;11.90;99.90;;;;;;7345211;19;109661;-92
2023/01/04 03:37:16;;;;;;;;;;;12.00;99.90;;;;;;7341603;19;109641;-92
2023/01/04 03:48:39;;;;;;;;;;;12.10;99.90;;;;;;7341221;19;108392;-92
2023/01/04 03:51:15;;;;;;;;;;;12.20;99.90;;;;;;7345341;19;109299;-93
2023/01/04 03:53:58;;;;;;;;;;;12.20;99.90;;;;;;7342278;19;109304;-93
2023/01/04 03:56:26;;;;;;;;;;;12.20;99.90;;;;;;7341784;19;109139;-94
2023/01/04 03:58:56;;;;;;;;;;;12.20;99.90;;;;;;7343580;19;111294;-93
2023/01/04 04:01:25;;;;;;;;;;;12.30;99.90;;;;;;7338425;19;108311;-91
2023/01/04 04:09:24;;;;;;;;;;;12.20;99.90;;;;;;7340351;19;108957;-92
2023/01/04 04:11:51;;;;;;;;;;;12.20;99.90;;;;;;7339744;19;109909;-93
2023/01/04 04:14:18;;;;;;;;;;;12.30;99.90;;;;;;7346087;19;111234;-93
2023/01/04 04:16:45;;;;;;;;;;;12.40;99.90;;;;;;7339564;19;109426;-94
2023/01/04 04:19:12;;;;;;;;;;;12.30;99.90;;;;;;7350018;19;109282;-94
2023/01/04 04:21:39;;;;;;;;;;;12.30;99.90;;;;;;7349813;19;109187;-94
2023/01/04 04:24:06;;;;;;;;;;;12.40;99.90;;;;;;7347587;19;109381;-92
2023/01/04 04:26:33;;;;;;;;;;;12.40;99.90;;;;;;7347068;19;109874;-93
2023/01/04 04:29:00;;;;;;;;;;;12.40;99.90;;;;;;7350113;19;108273;-93
2023/01/04 04:31:27;;;;;;;;;;;12.40;99.90;;;;;;7343887;19;108299;-92
2023/01/04 04:33:54;;;;;;;;;;;12.50;99.90;;;;;;7345395;19;108711;-92
2023/01/04 04:36:21;;;;;;;;;;;12.40;99.90;;;;;;7351634;19;112093;-92
2023/01/04 04:38:48;;;;;;;;;;;12.50;99.90;;;;;;7346973;19;110524;-93
2023/01/04 04:44:00;;;;;;;;;;;12.60;99.90;;;;;;7346852;19;108869;-93
2023/01/04 04:46:27;;;;;;;;;;;12.60;99.90;;;;;;7346612;19;109223;-93
2023/01/04 04:48:55;;;;;;;;;;;12.60;99.90;;;;;;7347408;19;110620;-92
2023/01/04 04:51:22;;;;;;;;;;;12.60;99.90;;;;;;7344260;19;109864;-94
2023/01/04 04:53:49;;;;;;;;;;;12.70;99.90;;;;;;7347757;19;109426;-92
2023/01/04 04:56:16;;;;;;;;;;;12.70;99.90;;;;;;7346846;19;108254;-93
2023/01/04 04:58:43;;;;;;;;;;;12.70;99.90;;;;;;7350105;19;109939;-94
2023/01/04 05:01:10;;;;;;;;;;;12.70;99.90;;;;;;7344999;19;108637;-92
2023/01/04 05:03:37;;;;;;;;;;;12.80;99.90;;;;;;7345226;19;109114;-91
2023/01/04 05:06:04;;;;;;;;;;;12.80;99.90;;;;;;7348473;19;110328;-92
2023/01/04 05:08:31;;;;;;;;;;;12.80;99.90;;;;;;7345255;19;108610;-93
2023/01/04 05:10:58;;;;;;;;;;;12.80;99.90;;;;;;7346844;19;108975;-91
2023/01/04 05:13:25;;;;;;;;;;;12.80;99.90;;;;;;7344420;19;111304;-92
2023/01/04 05:15:54;;;;;;;;;;;12.80;99.90;;;;;;7345848;19;108918;-92
2023/01/04 05:18:21;;;;;;;;;;;12.80;99.90;;;;;;7345966;19;109654;-93
2023/01/04 05:20:48;;;;;;;;;;;12.90;99.90;;;;;;7350923;19;109547;-93
2023/01/04 05:23:16;;;;;;;;;;;12.90;99.90;;;;;;7343660;19;108753;-91
2023/01/04 05:25:43;;;;;;;;;;;12.90;99.90;;;;;;7346495;19;111123;-93
2023/01/04 05:28:10;;;;;;;;;;;12.90;99.90;;;;;;7347264;19;108488;-93
2023/01/04 05:30:49;;;;;;;;;;;12.90;99.90;;;;;;7343931;19;109208;-92
2023/01/04 05:33:27;;;;;;;;;;;13.00;99.90;;;;;;7344173;19;109706;-92
2023/01/04 05:35:55;;;;;;;;;;;13.00;99.90;;;;;;7346140;19;109241;-93
2023/01/04 05:38:22;;;;;;;;;;;13.10;99.90;;;;;;7344993;19;109524;-93
2023/01/04 05:40:49;;;;;;;;;;;13.00;99.90;;;;;;7344150;19;109035;-92
2023/01/04 05:43:17;;;;;;;;;;;13.00;99.90;;;;;;7351048;19;108212;-92
2023/01/04 05:45:48;;;;;;;;;;;13.10;99.90;;;;;;7347721;19;109348;-92
2023/01/04 05:48:16;;;;;;;;;;;13.00;99.90;;;;;;7347035;19;108549;-92
2023/01/04 05:50:44;;;;;;;;;;;13.10;99.90;;;;;;7346594;19;110083;-92
2023/01/04 05:53:12;;;;;;;;;;;13.10;99.90;;;;;;7345785;19;108381;-93
2023/01/04 05:55:39;;;;;;;;;;;13.20;99.90;;;;;;7344746;19;108653;-92
2023/01/04 05:58:06;;;;;;;;;;;13.10;99.90;;;;;;7345857;19;108373;-92
2023/01/04 06:00:33;;;;;;;;;;;13.10;99.90;;;;;;7341680;19;109616;-92
2023/01/04 06:03:00;;;;;;;;;;;13.20;99.90;;;;;;7349152;19;108868;-93
2023/01/04 06:05:27;;;;;;;;;;;13.20;99.90;;;;;;7344276;19;110478;-91
2023/01/04 06:07:54;;;;;;;;;;;13.10;99.90;;;;;;7348409;19;109027;-93
2023/01/04 06:10:21;;;;;;;;;;;13.10;99.90;;;;;;7344119;19;109038;-93
2023/01/04 06:12:48;;;;;;;;;;;13.10;99.90;;;;;;7344372;19;109610;-92
2023/01/04 06:15:15;;;;;;;;;;;13.20;99.90;;;;;;7345873;19;108261;-92
2023/01/04 06:17:42;;;;;;;;;;;13.10;99.90;;;;;;7345719;19;108795;-92
2023/01/04 06:20:09;;;;;;;;;;;13.20;99.90;;;;;;7344079;19;109376;-93
2023/01/04 06:22:37;;;;;;;;;;;13.20;99.90;;;;;;7342590;19;111073;-93
2023/01/04 06:25:04;;;;;;;;;;;13.20;99.90;;;;;;7351496;19;109228;-94
2023/01/04 06:27:31;;;;;;;;;;;13.20;99.90;;;;;;7342947;19;108468;-93
2023/01/04 06:29:58;;;;;;;;;;;13.20;99.90;;;;;;7343476;19;108406;-93
2023/01/04 06:32:25;;;;;;;;;;;13.30;99.90;;;;;;7342396;19;110602;-93
2023/01/04 06:34:51;;;;;;;;;;;13.20;99.90;;;;;;7344896;19;109036;-92
2023/01/04 06:37:18;;;;;;;;;;;13.20;99.90;;;;;;7342878;19;108773;-94
2023/01/04 06:39:45;;;;;;;;;;;13.30;99.90;;;;;;7343813;19;110333;-94
2023/01/04 06:45:00;;;;;;;;;;;13.30;99.90;;;;;;7355075;19;108345;-95
2023/01/04 06:47:28;;;;;;;;;;;13.40;99.90;;;;;;7358738;19;109279;-95
2023/01/04 06:49:55;;;;;;;;;;;13.50;99.90;;;;;;7356505;19;108346;-94
2023/01/04 06:52:25;;;;;;;;;;;13.40;99.90;;;;;;7350351;19;109036;-95
2023/01/04 06:54:52;;;;;;;;;;;13.40;99.90;;;;;;7345524;19;108568;-94
2023/01/04 06:57:19;;;;;;;;;;;13.30;99.90;;;;;;7346535;19;110665;-96
2023/01/04 06:59:46;;;;;;;;;;;13.40;99.90;;;;;;7346793;19;110387;-93
2023/01/04 07:02:13;;;;;;;;;;;13.50;99.90;;;;;;7349900;19;109094;-96
2023/01/04 07:04:41;;;;;;;;;;;13.50;99.90;;;;;;7361679;19;109030;-95
2023/01/04 07:07:12;;;;;;;;;;;13.40;99.90;;;;;;7356838;19;110411;-95
2023/01/04 07:09:39;;;;;;;;;;;13.40;99.90;;;;;;7366490;19;109140;-95
2023/01/04 07:12:06;;;;;;;;;;;13.40;99.90;;;;;;7352623;19;108862;-93
2023/01/04 07:14:33;;;;;;;;;;;13.40;99.90;;;;;;7346724;19;108218;-93
2023/01/04 07:17:00;;;;;;;;;;;13.50;99.90;;;;;;7347777;19;108252;-95
2023/01/04 07:19:27;;;;;;;;;;;13.40;99.90;;;;;;7353109;19;110045;-95
2023/01/04 07:21:54;;;;;;;;;;;13.40;99.90;;;;;;7346304;19;108470;-95
2023/01/04 07:24:21;;;;;;;;;;;13.40;99.90;;;;;;7349250;19;110669;-93
2023/01/04 07:26:55;;;;;;;;;;;13.40;99.90;;;;;;7353438;19;110095;-95
2023/01/04 07:29:22;;;;;;;;;;;13.50;99.90;;;;;;7345964;19;108598;-94
2023/01/04 07:31:50;;;;;;;;;;;13.50;99.90;;;;;;7356169;19;110994;-95
2023/01/04 07:34:18;;;;;;;;;;;13.40;99.90;;;;;;7346521;19;108943;-94
2023/01/04 07:36:45;;;;;;;;;;;13.40;99.90;;;;;;7345327;19;108365;-95
2023/01/04 07:39:13;;;;;;;;;;;13.40;99.90;;;;;;7346428;19;110482;-94
2023/01/04 07:41:40;;;;;;;;;;;13.40;99.90;;;;;;7349792;19;108435;-95
2023/01/04 07:44:08;;;;;;;;;;;13.40;99.90;;;;;;7349574;19;108667;-95
2023/01/04 07:46:35;;;;;;;;;;;13.50;99.90;;;;;;7349102;19;109629;-96
2023/01/04 07:49:03;;;;;;;;;;;13.50;99.90;;;;;;7346967;19;108200;-95
2023/01/04 07:51:30;;;;;;;;;;;13.50;99.90;;;;;;7338604;19;108188;-94
2023/01/04 07:53:58;;;;;;;;;;;13.50;99.90;;;;;;7348678;19;109187;-94
2023/01/04 07:56:25;;;;;;;;;;;13.50;99.90;;;;;;7346110;19;108059;-96
2023/01/04 07:58:55;;;;;;;;;;;13.50;99.90;;;;;;7345848;19;109253;-95
2023/01/04 08:01:23;;;;;;;;;;;13.50;99.90;;;;;;7344390;19;108128;-95
2023/01/04 08:03:51;;;;;;;;;;;13.50;99.90;;;;;;7342441;19;108951;-96
2023/01/04 08:06:20;;;;;;;;;;;13.50;99.90;;;;;;7342786;19;111771;-95
2023/01/04 08:08:47;;;;;;;;;;;13.50;99.90;;;;;;7345253;19;108373;-95
2023/01/04 08:11:15;;;;;;;;;;;13.60;99.90;;;;;;7341546;19;108041;-93
2023/01/04 08:13:43;;;;;;;;;;;13.60;99.90;;;;;;7355589;19;108386;-95
2023/01/04 08:16:21;;;;;;;;;;;13.60;99.90;;;;;;7354591;19;108247;-94
2023/01/04 08:18:51;;;;;;;;;;;13.60;99.90;;;;;;7351778;19;112238;-95
2023/01/04 08:21:19;;;;;;;;;;;13.60;99.90;;;;;;7350144;19;108265;-95
2023/01/04 08:23:46;;;;;;;;;;;13.70;99.90;;;;;;7349571;19;107297;-95
2023/01/04 08:26:13;;;;;;;;;;;13.70;99.90;;;;;;7344378;19;110495;-94
2023/01/04 08:28:41;;;;;;;;;;;13.70;99.90;;;;;;7346158;19;108464;-94
2023/01/04 08:31:17;;;;;;;;;;;13.70;99.90;;;;;;7344358;19;110013;-94
2023/01/04 08:33:44;;;;;;;;;;;13.70;99.90;;;;;;7346053;19;108169;-94
2023/01/04 08:36:22;;;;;;;;;;;13.80;99.90;;;;;;7355713;19;107826;-95
2023/01/04 08:39:03;;;;;;;;;;;13.80;99.90;;;;;;7345571;19;109468;-96
2023/01/04 08:41:32;;;;;;;;;;;13.80;99.90;;;;;;7347500;19;108572;-96
2023/01/04 08:44:23;;;;;;;;;;;13.80;99.90;;;;;;7354131;19;110031;-94
2023/01/04 08:46:51;;;;;;;;;;;13.80;99.90;;;;;;7364532;19;109590;-96
2023/01/04 08:49:18;;;;;;;;;;;13.80;99.90;;;;;;7358616;19;107361;-95
2023/01/04 08:51:45;;;;;;;;;;;13.80;99.90;;;;;;7354641;19;109150;-96
2023/01/04 08:54:12;;;;;;;;;;;13.80;99.90;;;;;;7353136;19;109538;-95
2023/01/04 08:56:40;;;;;;;;;;;13.70;99.90;;;;;;7352896;19;108192;-95
2023/01/04 08:59:08;;;;;;;;;;;13.70;99.90;;;;;;7359195;19;109575;-96
2023/01/04 09:01:36;;;;;;;;;;;13.70;99.90;;;;;;7353969;19;107327;-95
2023/01/04 09:04:03;;;;;;;;;;;13.70;99.90;;;;;;7365948;19;108780;-96
2023/01/04 09:06:30;;;;;;;;;;;13.70;99.90;;;;;;7367417;19;110765;-96
2023/01/04 09:09:00;;;;;;;;;;;13.70;99.90;;;;;;7369604;19;107322;-96
2023/01/04 09:11:27;;;;;;;;;;;13.70;99.90;;;;;;7359136;19;108128;-95
2023/01/04 09:13:56;;;;;;;;;;;13.70;99.90;;;;;;7367022;19;109289;-95
2023/01/04 09:16:32;;;;;;;;;;;13.70;99.90;;;;;;7359185;19;107376;-94
2023/01/04 09:18:59;;;;;;;;;;;13.70;99.90;;;;;;7361652;19;107913;-96
2023/01/04 09:21:30;;;;;;;;;;;13.70;99.90;;;;;;7361989;19;111027;-96
2023/01/04 09:23:57;;;;;;;;;;;13.70;99.90;;;;;;7355944;19;110750;-95
2023/01/04 09:26:25;;;;;;;;;;;13.70;99.90;;;;;;7356991;19;110234;-96
2023/01/04 09:28:53;;;;;;;;;;;13.70;99.90;;;;;;7372441;19;109197;-96
2023/01/04 09:31:22;;;;;;;;;;;13.70;99.90;;;;;;7369481;19;107523;-96
2023/01/04 09:33:52;;;;;;;;;;;13.70;99.90;;;;;;7374009;19;110471;-95
2023/01/04 09:36:39;;;;;;;;;;;13.70;99.90;;;;;;7359843;19;108306;-94
2023/01/04 09:39:07;;;;;;;;;;;13.80;99.90;;;;;;7359179;19;108177;-96
2023/01/04 09:42:02;;;;;;;;;;;13.70;99.90;;;;;;7349997;19;112368;-95
2023/01/04 09:44:42;;;;;;;;;;;13.80;99.90;;;;;;7353034;19;108763;-94
2023/01/04 09:47:36;;;;;;;;;;;13.80;99.90;;;;;;7338383;19;110132;-92
2023/01/04 09:50:05;;;;;;;;;;;13.60;99.90;;;;;;7339855;19;108396;-93
2023/01/04 09:52:35;;;;;;;;;;;13.50;99.90;;;;;;7336917;19;109299;-93
2023/01/04 09:55:06;;;;;;;;;;;13.50;99.90;;;;;;7337717;19;110213;-92
2023/01/04 09:57:56;;;;;;;;;;;13.50;99.90;;;;;;7340860;19;108747;-92
2023/01/04 10:00:26;;;;;;;;;;;13.50;99.90;;;;;;7339032;19;108819;-92
2023/01/04 10:02:59;;;;;;;;;;;13.40;99.90;;;;;;7339038;19;109155;-92
2023/01/04 10:05:27;;;;;;;;;;;13.50;99.90;;;;;;7338654;19;108993;-92
2023/01/04 10:07:54;;;;;;;;;;;13.50;99.90;;;;;;7343787;19;109641;-91
2023/01/04 10:10:32;;;;;;;;;;;13.50;99.90;;;;;;7337843;19;109240;-91
2023/01/04 10:13:17;;;;;;;;;;;13.50;99.90;;;;;;7339559;19;109355;-91
2023/01/04 10:15:51;;;;;;;;;;;13.50;99.90;;;;;;7337674;19;109208;-92
2023/01/04 10:18:27;;;;;;;;;;;13.50;99.90;;;;;;7341099;19;108782;-92
2023/01/04 10:21:21;;;;;;;;;;;13.50;99.90;;;;;;7339548;19;108941;-90
2023/01/04 10:24:02;;;;;;;;;;;13.50;99.90;;;;;;7338197;19;109421;-91
2023/01/04 10:26:33;;;;;;;;;;;13.60;99.90;;;;;;7336283;19;108995;-93
2023/01/04 10:29:06;;;;;;;;;;;13.60;99.90;;;;;;7345348;19;111431;-92
2023/01/04 10:31:45;;;;;;;;;;;13.50;99.90;;;;;;7336038;19;109047;-91
2023/01/04 10:34:18;;;;;;;;;;;13.60;99.90;;;;;;7337128;19;108941;-91
2023/01/04 10:36:46;;;;;;;;;;;13.50;99.90;;;;;;7340245;19;110280;-92
2023/01/04 10:39:17;;;;;;;;;;;13.60;99.90;;;;;;7339875;19;108264;-93
2023/01/04 10:41:49;;;;;;;;;;;13.60;99.90;;;;;;7341178;19;108068;-94
2023/01/04 10:44:35;;;;;;;;;;;13.60;99.90;;;;;;7337107;19;113563;-92
2023/01/04 10:47:10;;;;;;;;;;;13.70;99.90;;;;;;7341332;19;111765;-92
2023/01/04 10:49:52;;;;;;;;;;;13.60;99.90;;;;;;7340507;19;108877;-92
2023/01/04 10:52:22;;;;;;;;;;;13.60;99.90;;;;;;7342901;19;110179;-91
2023/01/04 10:54:51;;;;;;;;;;;13.60;99.90;;;;;;7339855;19;108304;-90
2023/01/04 10:57:21;;;;;;;;;;;13.70;99.90;;;;;;7338115;19;110506;-91
2023/01/04 10:59:52;;;;;;;;;;;13.70;99.90;;;;;;7339464;19;108259;-90
2023/01/04 11:02:51;;;;;;;;;;;13.60;99.90;;;;;;7337510;19;109617;-91
2023/01/04 11:05:19;;;;;;;;;;;13.70;99.90;;;;;;7333300;19;109287;-89
2023/01/04 11:07:52;;;;;;;;;;;13.60;99.90;;;;;;7337641;19;108546;-92
2023/01/04 11:10:19;;;;;;;;;;;13.60;99.90;;;;;;7337101;19;109739;-93
2023/01/04 11:12:46;;;;;;;;;;;13.60;99.90;;;;;;7336427;19;109230;-91
2023/01/04 11:15:13;;;;;;;;;;;13.60;99.90;;;;;;7341174;19;108998;-93
2023/01/04 11:17:40;;;;;;;;;;;13.60;99.90;;;;;;7334632;19;109180;-94
2023/01/04 11:20:08;;;;;;;;;;;13.60;99.90;;;;;;7337316;19;108965;-93
2023/01/04 11:22:44;;;;;;;;;;;13.60;99.90;;;;;;7336685;19;109380;-93
2023/01/04 11:25:12;;;;;;;;;;;13.60;99.90;;;;;;7336554;19;109051;-93
2023/01/04 11:28:08;;;;;;;;;;;13.60;99.90;;;;;;7336676;19;108927;-94
2023/01/04 11:30:44;;;;;;;;;;;13.60;99.90;;;;;;7336359;19;112765;-93
2023/01/04 11:33:14;;;;;;;;;;;13.60;99.90;;;;;;7335657;19;114875;-92
2023/01/04 11:35:42;;;;;;;;;;;13.60;99.90;;;;;;7333534;19;108904;-93
2023/01/04 11:38:23;;;;;;;;;;;13.60;99.90;;;;;;7340250;19;110657;-90
2023/01/04 11:40:58;;;;;;;;;;;13.60;99.90;;;;;;7336972;19;109037;-92
2023/01/04 11:43:26;;;;;;;;;;;13.60;99.90;;;;;;7338705;19;109336;-94
2023/01/04 11:45:53;;;;;;;;;;;13.60;99.90;;;;;;7339257;19;110175;-93
2023/01/04 11:48:30;;;;;;;;;;;13.60;99.90;;;;;;7338285;19;108563;-91
2023/01/04 11:50:57;;;;;;;;;;;13.60;99.90;;;;;;7339399;19;111210;-93
2023/01/04 11:53:24;;;;;;;;;;;13.60;99.90;;;;;;7337709;19;110076;-92
2023/01/04 11:55:51;;;;;;;;;;;13.60;99.90;;;;;;7335538;19;108928;-93
2023/01/04 11:58:18;;;;;;;;;;;13.50;99.90;;;;;;7338214;19;111301;-94
2023/01/04 12:00:49;;;;;;;;;;;13.60;99.90;;;;;;7342325;19;109211;-93
2023/01/04 12:03:19;;;;;;;;;;;13.50;99.90;;;;;;7337703;19;108865;-93
2023/01/04 12:05:45;;;;;;;;;;;13.50;99.90;;;;;;7336487;19;109912;-93
2023/01/04 12:08:24;;;;;;;;;;;13.50;99.90;;;;;;7338855;19;108167;-93
2023/01/04 12:10:51;;;;;;;;;;;13.50;99.90;;;;;;7335267;19;108432;-92
2023/01/04 12:13:18;;;;;;;;;;;13.60;99.90;;;;;;7335937;19;111723;-92
2023/01/04 12:15:54;;;;;;;;;;;13.50;99.90;;;;;;7337488;19;108941;-92
2023/01/04 12:18:25;;;;;;;;;;;13.50;99.90;;;;;;7336649;19;109538;-93
2023/01/04 12:20:52;;;;;;;;;;;13.50;99.90;;;;;;7337036;19;111946;-92
2023/01/04 12:23:19;;;;;;;;;;;13.50;99.90;;;;;;7342240;19;108783;-91
2023/01/04 12:25:50;;;;;;;;;;;13.50;99.90;;;;;;7338430;19;110679;-92
2023/01/04 12:28:27;;;;;;;;;;;13.50;99.90;;;;;;7337581;19;109639;-91
2023/01/04 12:30:54;;;;;;;;;;;13.50;99.90;;;;;;7335891;19;109031;-91
2023/01/04 12:33:41;;;;;;;;;;;13.50;99.90;;;;;;7335577;19;110068;-91
2023/01/04 12:36:13;;;;;;;;;;;13.60;99.90;;;;;;7335899;19;108644;-91
2023/01/04 12:38:55;;;;;;;;;;;13.60;99.90;;;;;;7338656;19;111150;-91
2023/01/04 12:41:34;;;;;;;;;;;13.50;99.90;;;;;;7344505;19;112092;-91
2023/01/04 12:44:01;;;;;;;;;;;13.60;99.90;;;;;;7350510;19;109537;-92
2023/01/04 12:49:23;;;;;;;;;;;13.60;99.90;;;;;;7345349;19;108090;-92
2023/01/04 12:52:09;;;;;;;;;;;13.60;99.90;;;;;;7344506;19;108738;-92
2023/01/04 12:55:02;;;;;;;;;;;13.60;99.90;;;;;;7340977;19;110455;-91
2023/01/04 12:57:36;;;;;;;;;;;13.60;99.90;;;;;;7344213;19;109106;-92
2023/01/04 13:00:04;;;;;;;;;;;13.60;99.90;;;;;;7344020;19;108518;-93
2023/01/04 13:02:32;;;;;;;;;;;13.60;99.90;;;;;;7343337;19;110469;-92
2023/01/04 13:05:01;;;;;;;;;;;13.60;99.90;;;;;;7343643;19;108424;-93
2023/01/04 13:07:49;;;;;;;;;;;13.50;99.90;;;;;;7348649;19;110996;-92
2023/01/04 13:10:35;;;;;;;;;;;13.50;99.90;;;;;;7344201;19;108587;-92
2023/01/04 13:13:02;;;;;;;;;;;13.60;99.90;;;;;;7344719;19;112154;-92
2023/01/04 13:15:35;;;;;;;;;;;13.60;99.90;;;;;;7343154;19;110738;-92
2023/01/04 13:18:03;;;;;;;;;;;13.60;99.90;;;;;;7342215;19;108382;-91
2023/01/04 13:20:29;;;;;;;;;;;13.60;99.90;;;;;;7341234;19;112064;-91
2023/01/04 13:22:57;;;;;;;;;;;13.60;99.90;;;;;;7341998;19;110294;-91
2023/01/04 13:25:25;;;;;;;;;;;13.70;99.90;;;;;;7346491;19;108889;-92
2023/01/04 13:27:56;;;;;;;;;;;13.70;99.90;;;;;;7343124;19;109533;-92
2023/01/04 13:30:37;;;;;;;;;;;13.70;99.90;;;;;;7345242;19;109928;-91
2023/01/04 13:33:22;;;;;;;;;;;13.70;99.90;;;;;;7342316;19;109162;-91
2023/01/04 13:36:07;;;;;;;;;;;13.70;99.90;;;;;;7342755;19;109506;-92
2023/01/04 13:38:35;;;;;;;;;;;13.70;99.90;;;;;;7341901;19;108953;-91
2023/01/04 13:41:05;;;;;;;;;;;13.70;99.90;;;;;;7344023;19;113916;-92
2023/01/04 13:43:55;;;;;;;;;;;13.70;99.90;;;;;;7341378;19;110682;-91
2023/01/04 13:46:24;;;;;;;;;;;13.70;99.90;;;;;;7341197;19;108776;-91
2023/01/04 13:48:52;;;;;;;;;;;13.80;99.90;;;;;;7343613;19;108291;-90
2023/01/04 13:51:31;;;;;;;;;;;13.70;99.90;;;;;;7340026;19;110473;-92
2023/01/04 13:54:04;;;;;;;;;;;13.80;99.90;;;;;;7348528;19;108895;-92
2023/01/04 13:56:33;;;;;;;;;;;13.80;99.90;;;;;;7342800;19;111519;-92
2023/01/04 13:59:00;;;;;;;;;;;13.80;99.90;;;;;;7343807;19;108925;-92
2023/01/04 14:01:43;;;;;;;;;;;13.80;99.90;;;;;;7345645;19;108707;-93
2023/01/04 14:04:16;;;;;;;;;;;13.90;99.90;;;;;;7342640;19;109631;-93
2023/01/04 14:06:44;;;;;;;;;;;13.90;99.90;;;;;;7342918;19;108444;-92
2023/01/04 14:09:12;;;;;;;;;;;13.90;99.90;;;;;;7343400;19;109400;-91
2023/01/04 14:14:33;;;;;;;;;;;13.90;99.90;;;;;;7340327;19;108473;-93
2023/01/04 14:17:12;;;;;;;;;;;13.90;99.90;;;;;;7347514;19;109535;-92
2023/01/04 14:19:43;;;;;;;;;;;13.90;99.90;;;;;;7342779;19;108397;-92
2023/01/04 14:22:19;;;;;;;;;;;13.90;99.90;;;;;;7343538;19;109408;-92
2023/01/04 14:24:47;;;;;;;;;;;13.90;99.90;;;;;;7342874;19;110695;-93
2023/01/04 14:27:35;;;;;;;;;;;13.90;99.90;;;;;;7339990;19;109306;-93
2023/01/04 14:30:17;;;;;;;;;;;13.90;99.90;;;;;;7339421;19;108849;-92
2023/01/04 14:33:24;;;;;;;;;;;13.90;99.90;;;;;;7339295;19;109394;-92
2023/01/04 14:36:04;;;;;;;;;;;13.90;99.90;;;;;;7337591;19;108204;-93
2023/01/04 14:38:34;;;;;;;;;;;13.90;99.90;;;;;;7343685;19;111417;-92
2023/01/04 14:41:19;;;;;;;;;;;13.90;99.90;;;;;;7338989;19;108757;-92
2023/01/04 14:43:53;;;;;;;;;;;13.90;99.90;;;;;;7337590;19;109547;-90
2023/01/04 14:46:21;;;;;;;;;;;13.90;99.90;;;;;;7336600;19;110718;-92
2023/01/04 14:48:48;;;;;;;;;;;13.80;99.90;;;;;;7338181;19;108581;-91
2023/01/04 14:51:17;;;;;;;;;;;13.90;99.90;;;;;;7336591;19;109544;-92
2023/01/04 14:53:44;;;;;;;;;;;13.80;99.90;;;;;;7338082;19;109274;-92
2023/01/04 14:56:12;;;;;;;;;;;13.80;99.90;;;;;;7337554;19;109142;-91
2023/01/04 14:58:39;;;;;;;;;;;13.90;99.90;;;;;;7337804;19;110927;-93
2023/01/04 15:01:07;;;;;;;;;;;13.90;99.90;;;;;;7342525;19;110957;-91
2023/01/04 15:03:34;;;;;;;;;;;13.90;99.90;;;;;;7336688;19;108664;-91
2023/01/04 15:06:01;;;;;;;;;;;13.80;99.90;;;;;;7340905;19;110783;-93
2023/01/04 15:08:28;;;;;;;;;;;13.80;99.90;;;;;;7337612;19;108415;-93
2023/01/04 15:10:55;;;;;;;;;;;13.70;99.90;;;;;;7339652;19;108565;-92
2023/01/04 15:13:26;;;;;;;;;;;13.70;99.90;;;;;;7337144;19;109514;-92
2023/01/04 15:15:53;;;;;;;;;;;13.70;99.90;;;;;;7340387;19;108355;-93
2023/01/04 15:18:20;;;;;;;;;;;13.70;99.90;;;;;;7335324;19;109134;-91
2023/01/04 15:20:47;;;;;;;;;;;13.70;99.90;;;;;;7336433;19;110341;-90